| Date | Time | Temp. (oF) | Dew Point (oF) | Rel. Hum. (%) | Press. (in.) | Wind Dir. | Wind Speed (mph) | Hourly Rainfall (in.) |
|
|---|---|---|---|---|---|---|---|---|---|
| 1 | 05/25 | 00:00 | 66 | 50 | 57 | 30.10 | S | 2 | 0.00 |
| 2 | 05/24 | 23:00 | 67 | 50 | 56 | 30.10 | S | 4 | 0.00 |
| 3 | 05/24 | 22:00 | 68 | 52 | 58 | 30.10 | S | 3 | 0.00 |
| 4 | 05/24 | 21:00 | 70 | 52 | 55 | 30.09 | S | 1 | 0.00 |
| 5 | 05/24 | 20:00 | 76 | 49 | 40 | 30.07 | S | 1 | 0.00 |
| 6 | 05/24 | 19:00 | 79 | 47 | 33 | 30.06 | SSW | 3 | 0.00 |
| 7 | 05/24 | 18:00 | 81 | 48 | 32 | 30.08 | WSW | 4 | 0.00 |
| 8 | 05/24 | 17:00 | 83 | 48 | 31 | 30.08 | SSW | 2 | 0.00 |
| 9 | 05/24 | 16:00 | 82 | 48 | 31 | 30.10 | N | 5 | 0.00 |
| 10 | 05/24 | 15:00 | 81 | 48 | 33 | 30.13 | NW | 4 | 0.00 |
| 11 | 05/24 | 14:00 | 80 | 55 | 43 | 30.15 | NW | 3 | 0.00 |
| 12 | 05/24 | 13:00 | 78 | 49 | 37 | 30.16 | ENE | 4 | 0.00 |
| 13 | 05/24 | 12:00 | 77 | 53 | 44 | 30.17 | WSW | 1 | 0.00 |
| 14 | 05/24 | 11:00 | 74 | 45 | 37 | 30.18 | NNE | 5 | 0.00 |
| 15 | 05/24 | 10:00 | 72 | 52 | 50 | 30.17 | NW | 9 | 0.00 |
| 16 | 05/24 | 09:00 | 67 | 50 | 56 | 30.18 | NNW | 5 | 0.00 |
| 17 | 05/24 | 08:00 | 63 | 51 | 67 | 30.17 | NW | 4 | 0.00 |
| 18 | 05/24 | 07:00 | 60 | 53 | 78 | 30.15 | NW | 6 | 0.00 |
| 19 | 05/24 | 06:00 | 55 | 54 | 99 | 30.13 | NW | 3 | 0.00 |
| 20 | 05/24 | 05:00 | 54 | 54 | 100 | 30.11 | NW | 1 | 0.00 |
| 21 | 05/24 | 04:00 | 55 | 54 | 99 | 30.10 | NW | 2 | 0.00 |
| 22 | 05/24 | 03:00 | 56 | 54 | 96 | 30.09 | NW | 1 | 0.00 |
| 23 | 05/24 | 02:00 | 59 | 56 | 90 | 30.08 | WSW | 1 | 0.00 |
| 24 | 05/24 | 01:00 | 61 | 55 | 83 | 30.08 | W | 2 | 0.00 |